sensor_id;sensor_type;location;lat;lon;timestamp;P1;durP1;ratioP1;P2;durP2;ratioP2
8665;SDS011;4370;48.916;8.380;2024-01-06T00:00:02;3.50;;;2.17;;
8665;SDS011;4370;48.916;8.380;2024-01-06T00:02:42;10.17;;;3.03;;
8665;SDS011;4370;48.916;8.380;2024-01-06T00:05:11;5.37;;;2.20;;
8665;SDS011;4370;48.916;8.380;2024-01-06T00:07:37;5.63;;;2.63;;
8665;SDS011;4370;48.916;8.380;2024-01-06T00:10:03;4.90;;;2.20;;
8665;SDS011;4370;48.916;8.380;2024-01-06T00:12:33;5.33;;;2.30;;
8665;SDS011;4370;48.916;8.380;2024-01-06T00:14:59;5.33;;;2.20;;
8665;SDS011;4370;48.916;8.380;2024-01-06T00:17:25;8.00;;;2.40;;
8665;SDS011;4370;48.916;8.380;2024-01-06T00:19:52;4.60;;;2.10;;
8665;SDS011;4370;48.916;8.380;2024-01-06T00:22:18;4.63;;;2.13;;
8665;SDS011;4370;48.916;8.380;2024-01-06T00:24:47;5.73;;;2.53;;
8665;SDS011;4370;48.916;8.380;2024-01-06T00:27:23;6.40;;;2.43;;
8665;SDS011;4370;48.916;8.380;2024-01-06T00:29:49;4.80;;;2.50;;
8665;SDS011;4370;48.916;8.380;2024-01-06T00:32:15;6.97;;;2.50;;
8665;SDS011;4370;48.916;8.380;2024-01-06T00:38:27;6.07;;;2.23;;
8665;SDS011;4370;48.916;8.380;2024-01-06T00:41:09;3.77;;;2.03;;
8665;SDS011;4370;48.916;8.380;2024-01-06T00:44:01;5.30;;;2.13;;
8665;SDS011;4370;48.916;8.380;2024-01-06T00:46:28;6.43;;;2.13;;
8665;SDS011;4370;48.916;8.380;2024-01-06T00:48:54;6.23;;;2.20;;
8665;SDS011;4370;48.916;8.380;2024-01-06T00:51:20;2.87;;;2.00;;
8665;SDS011;4370;48.916;8.380;2024-01-06T00:56:29;4.57;;;2.10;;
8665;SDS011;4370;48.916;8.380;2024-01-06T01:02:39;7.27;;;2.53;;
8665;SDS011;4370;48.916;8.380;2024-01-06T01:05:26;6.53;;;2.70;;
8665;SDS011;4370;48.916;8.380;2024-01-06T01:07:52;3.97;;;2.10;;
8665;SDS011;4370;48.916;8.380;2024-01-06T01:13:48;7.57;;;2.17;;
8665;SDS011;4370;48.916;8.380;2024-01-06T01:16:20;6.37;;;2.23;;
8665;SDS011;4370;48.916;8.380;2024-01-06T01:18:52;4.67;;;2.07;;
8665;SDS011;4370;48.916;8.380;2024-01-06T01:21:18;6.53;;;2.47;;
8665;SDS011;4370;48.916;8.380;2024-01-06T01:24:12;7.10;;;2.37;;
8665;SDS011;4370;48.916;8.380;2024-01-06T01:26:46;6.63;;;2.30;;
8665;SDS011;4370;48.916;8.380;2024-01-06T01:29:32;6.57;;;2.90;;
8665;SDS011;4370;48.916;8.380;2024-01-06T01:31:58;6.30;;;2.60;;
8665;SDS011;4370;48.916;8.380;2024-01-06T01:37:00;3.57;;;2.00;;
8665;SDS011;4370;48.916;8.380;2024-01-06T01:39:26;4.83;;;2.50;;
8665;SDS011;4370;48.916;8.380;2024-01-06T02:03:10;4.93;;;3.00;;
8665;SDS011;4370;48.916;8.380;2024-01-06T02:06:05;5.93;;;2.43;;
8665;SDS011;4370;48.916;8.380;2024-01-06T02:08:31;10.97;;;2.20;;
8665;SDS011;4370;48.916;8.380;2024-01-06T02:10:59;6.80;;;2.40;;
8665;SDS011;4370;48.916;8.380;2024-01-06T02:17:13;3.43;;;2.13;;
8665;SDS011;4370;48.916;8.380;2024-01-06T02:20:05;5.03;;;2.57;;
8665;SDS011;4370;48.916;8.380;2024-01-06T02:25:16;7.60;;;2.50;;
8665;SDS011;4370;48.916;8.380;2024-01-06T02:28:28;5.90;;;2.20;;
8665;SDS011;4370;48.916;8.380;2024-01-06T02:30:56;8.17;;;2.80;;
8665;SDS011;4370;48.916;8.380;2024-01-06T02:33:25;7.23;;;2.40;;
8665;SDS011;4370;48.916;8.380;2024-01-06T02:53:30;5.00;;;2.30;;
8665;SDS011;4370;48.916;8.380;2024-01-06T02:56:24;5.73;;;2.30;;
8665;SDS011;4370;48.916;8.380;2024-01-06T02:58:51;3.83;;;1.77;;
8665;SDS011;4370;48.916;8.380;2024-01-06T03:01:23;8.30;;;2.70;;
8665;SDS011;4370;48.916;8.380;2024-01-06T03:07:10;6.23;;;2.30;;
8665;SDS011;4370;48.916;8.380;2024-01-06T03:09:56;7.13;;;2.30;;
8665;SDS011;4370;48.916;8.380;2024-01-06T03:12:55;5.97;;;2.03;;
8665;SDS011;4370;48.916;8.380;2024-01-06T03:19:12;3.83;;;2.40;;
8665;SDS011;4370;48.916;8.380;2024-01-06T03:22:07;6.80;;;2.47;;
8665;SDS011;4370;48.916;8.380;2024-01-06T03:24:47;6.67;;;2.70;;
8665;SDS011;4370;48.916;8.380;2024-01-06T03:27:26;6.17;;;2.60;;
8665;SDS011;4370;48.916;8.380;2024-01-06T03:29:53;5.33;;;2.67;;
8665;SDS011;4370;48.916;8.380;2024-01-06T03:32:19;7.47;;;2.73;;
8665;SDS011;4370;48.916;8.380;2024-01-06T03:35:08;5.73;;;2.30;;
8665;SDS011;4370;48.916;8.380;2024-01-06T03:37:40;6.50;;;2.90;;
8665;SDS011;4370;48.916;8.380;2024-01-06T03:40:15;6.77;;;3.33;;
8665;SDS011;4370;48.916;8.380;2024-01-06T03:42:41;4.17;;;2.30;;
8665;SDS011;4370;48.916;8.380;2024-01-06T03:48:32;5.53;;;2.50;;
8665;SDS011;4370;48.916;8.380;2024-01-06T03:51:02;5.37;;;2.43;;
8665;SDS011;4370;48.916;8.380;2024-01-06T03:53:30;4.87;;;2.37;;
8665;SDS011;4370;48.916;8.380;2024-01-06T03:56:16;5.27;;;2.47;;
8665;SDS011;4370;48.916;8.380;2024-01-06T03:58:43;5.17;;;2.77;;
8665;SDS011;4370;48.916;8.380;2024-01-06T04:01:15;7.63;;;2.60;;
8665;SDS011;4370;48.916;8.380;2024-01-06T04:03:41;6.50;;;3.33;;
8665;SDS011;4370;48.916;8.380;2024-01-06T04:09:04;5.67;;;2.60;;
8665;SDS011;4370;48.916;8.380;2024-01-06T04:12:02;4.20;;;2.43;;
8665;SDS011;4370;48.916;8.380;2024-01-06T04:17:33;7.67;;;2.37;;
8665;SDS011;4370;48.916;8.380;2024-01-06T04:19:58;8.30;;;2.97;;
8665;SDS011;4370;48.916;8.380;2024-01-06T04:22:24;4.87;;;2.70;;
8665;SDS011;4370;48.916;8.380;2024-01-06T04:24:51;4.27;;;2.23;;
8665;SDS011;4370;48.916;8.380;2024-01-06T04:27:57;9.50;;;2.83;;
8665;SDS011;4370;48.916;8.380;2024-01-06T04:30:53;9.80;;;2.33;;
8665;SDS011;4370;48.916;8.380;2024-01-06T04:36:20;5.80;;;2.60;;
8665;SDS011;4370;48.916;8.380;2024-01-06T04:38:49;5.53;;;2.83;;
8665;SDS011;4370;48.916;8.380;2024-01-06T04:41:37;5.97;;;2.63;;
8665;SDS011;4370;48.916;8.380;2024-01-06T04:44:06;5.03;;;2.70;;
8665;SDS011;4370;48.916;8.380;2024-01-06T04:47:31;6.30;;;2.73;;
8665;SDS011;4370;48.916;8.380;2024-01-06T04:49:56;5.90;;;2.67;;
8665;SDS011;4370;48.916;8.380;2024-01-06T04:52:22;6.93;;;2.80;;
8665;SDS011;4370;48.916;8.380;2024-01-06T04:54:49;6.37;;;2.40;;
8665;SDS011;4370;48.916;8.380;2024-01-06T04:57:15;5.37;;;2.60;;
8665;SDS011;4370;48.916;8.380;2024-01-06T05:06:47;7.60;;;2.50;;
8665;SDS011;4370;48.916;8.380;2024-01-06T05:12:39;6.73;;;2.67;;
8665;SDS011;4370;48.916;8.380;2024-01-06T05:15:13;9.80;;;2.90;;
8665;SDS011;4370;48.916;8.380;2024-01-06T05:17:54;5.30;;;3.07;;
8665;SDS011;4370;48.916;8.380;2024-01-06T05:20:59;5.97;;;3.07;;
8665;SDS011;4370;48.916;8.380;2024-01-06T05:29:37;7.47;;;2.93;;
8665;SDS011;4370;48.916;8.380;2024-01-06T05:38:38;4.97;;;2.57;;
8665;SDS011;4370;48.916;8.380;2024-01-06T05:41:06;7.97;;;2.90;;
8665;SDS011;4370;48.916;8.380;2024-01-06T05:43:34;4.53;;;2.57;;
8665;SDS011;4370;48.916;8.380;2024-01-06T05:46:19;6.17;;;2.80;;
8665;SDS011;4370;48.916;8.380;2024-01-06T05:48:46;7.73;;;2.77;;
8665;SDS011;4370;48.916;8.380;2024-01-06T05:51:51;6.97;;;2.27;;
8665;SDS011;4370;48.916;8.380;2024-01-06T05:54:17;6.40;;;2.33;;
8665;SDS011;4370;48.916;8.380;2024-01-06T05:56:43;8.57;;;2.90;;
8665;SDS011;4370;48.916;8.380;2024-01-06T05:59:12;6.83;;;3.00;;
8665;SDS011;4370;48.916;8.380;2024-01-06T06:01:41;5.90;;;2.53;;
8665;SDS011;4370;48.916;8.380;2024-01-06T06:04:08;5.23;;;2.97;;
8665;SDS011;4370;48.916;8.380;2024-01-06T06:20:25;2.83;;;2.20;;
8665;SDS011;4370;48.916;8.380;2024-01-06T06:22:51;7.50;;;2.63;;
8665;SDS011;4370;48.916;8.380;2024-01-06T06:25:17;8.83;;;3.00;;
8665;SDS011;4370;48.916;8.380;2024-01-06T06:28:03;4.50;;;2.73;;
8665;SDS011;4370;48.916;8.380;2024-01-06T06:30:33;7.43;;;3.03;;
8665;SDS011;4370;48.916;8.380;2024-01-06T06:32:59;5.93;;;2.40;;
8665;SDS011;4370;48.916;8.380;2024-01-06T06:35:25;4.17;;;2.73;;
8665;SDS011;4370;48.916;8.380;2024-01-06T06:37:51;8.87;;;2.43;;
8665;SDS011;4370;48.916;8.380;2024-01-06T06:40:20;4.60;;;2.23;;
8665;SDS011;4370;48.916;8.380;2024-01-06T06:43:04;3.53;;;2.50;;
8665;SDS011;4370;48.916;8.380;2024-01-06T06:45:48;3.33;;;2.10;;
8665;SDS011;4370;48.916;8.380;2024-01-06T06:48:28;7.33;;;2.80;;
8665;SDS011;4370;48.916;8.380;2024-01-06T06:51:25;5.40;;;2.70;;
8665;SDS011;4370;48.916;8.380;2024-01-06T06:56:45;8.07;;;2.90;;
8665;SDS011;4370;48.916;8.380;2024-01-06T06:59:11;7.03;;;2.60;;
8665;SDS011;4370;48.916;8.380;2024-01-06T07:01:37;7.13;;;3.50;;
8665;SDS011;4370;48.916;8.380;2024-01-06T07:04:13;5.17;;;3.07;;
8665;SDS011;4370;48.916;8.380;2024-01-06T07:07:00;5.77;;;3.03;;
8665;SDS011;4370;48.916;8.380;2024-01-06T07:19:28;3.67;;;3.27;;
8665;SDS011;4370;48.916;8.380;2024-01-06T07:22:04;4.77;;;2.90;;
8665;SDS011;4370;48.916;8.380;2024-01-06T07:24:30;6.73;;;3.03;;
8665;SDS011;4370;48.916;8.380;2024-01-06T07:26:57;5.90;;;3.00;;
8665;SDS011;4370;48.916;8.380;2024-01-06T07:29:23;5.23;;;2.90;;
8665;SDS011;4370;48.916;8.380;2024-01-06T07:34:33;7.13;;;3.00;;
8665;SDS011;4370;48.916;8.380;2024-01-06T07:36:59;5.33;;;2.93;;
8665;SDS011;4370;48.916;8.380;2024-01-06T07:39:26;4.63;;;2.90;;
8665;SDS011;4370;48.916;8.380;2024-01-06T07:42:03;5.17;;;2.30;;
8665;SDS011;4370;48.916;8.380;2024-01-06T07:44:36;6.37;;;3.00;;
8665;SDS011;4370;48.916;8.380;2024-01-06T07:47:30;3.83;;;2.27;;
8665;SDS011;4370;48.916;8.380;2024-01-06T07:53:36;2.90;;;2.30;;
8665;SDS011;4370;48.916;8.380;2024-01-06T07:56:32;3.80;;;2.70;;
8665;SDS011;4370;48.916;8.380;2024-01-06T07:59:08;6.03;;;2.30;;
8665;SDS011;4370;48.916;8.380;2024-01-06T08:01:54;4.17;;;2.37;;
8665;SDS011;4370;48.916;8.380;2024-01-06T08:04:29;3.00;;;2.70;;
8665;SDS011;4370;48.916;8.380;2024-01-06T08:07:30;4.70;;;2.50;;
8665;SDS011;4370;48.916;8.380;2024-01-06T08:10:02;5.10;;;2.80;;
8665;SDS011;4370;48.916;8.380;2024-01-06T08:12:46;4.40;;;2.43;;
8665;SDS011;4370;48.916;8.380;2024-01-06T08:15:27;4.63;;;2.73;;
8665;SDS011;4370;48.916;8.380;2024-01-06T08:18:03;5.63;;;3.57;;
8665;SDS011;4370;48.916;8.380;2024-01-06T08:20:43;6.17;;;4.00;;
8665;SDS011;4370;48.916;8.380;2024-01-06T08:23:18;6.13;;;3.90;;
8665;SDS011;4370;48.916;8.380;2024-01-06T08:32:12;4.27;;;2.40;;
8665;SDS011;4370;48.916;8.380;2024-01-06T08:37:56;4.70;;;3.33;;
8665;SDS011;4370;48.916;8.380;2024-01-06T08:40:22;6.23;;;3.00;;
8665;SDS011;4370;48.916;8.380;2024-01-06T08:43:37;4.93;;;2.90;;
8665;SDS011;4370;48.916;8.380;2024-01-06T08:49:15;5.47;;;3.60;;
8665;SDS011;4370;48.916;8.380;2024-01-06T08:54:21;6.57;;;4.33;;
8665;SDS011;4370;48.916;8.380;2024-01-06T08:56:57;6.70;;;4.30;;
8665;SDS011;4370;48.916;8.380;2024-01-06T08:59:23;5.13;;;4.00;;
8665;SDS011;4370;48.916;8.380;2024-01-06T09:01:52;5.83;;;4.47;;
8665;SDS011;4370;48.916;8.380;2024-01-06T09:04:18;7.90;;;4.43;;
8665;SDS011;4370;48.916;8.380;2024-01-06T09:07:17;5.57;;;4.50;;
8665;SDS011;4370;48.916;8.380;2024-01-06T09:09:43;6.70;;;4.67;;
8665;SDS011;4370;48.916;8.380;2024-01-06T09:15:00;9.97;;;5.47;;
8665;SDS011;4370;48.916;8.380;2024-01-06T09:27:56;6.47;;;4.60;;
8665;SDS011;4370;48.916;8.380;2024-01-06T09:30:51;7.33;;;4.43;;
8665;SDS011;4370;48.916;8.380;2024-01-06T09:33:39;10.60;;;5.53;;
8665;SDS011;4370;48.916;8.380;2024-01-06T09:36:05;6.70;;;4.37;;
8665;SDS011;4370;48.916;8.380;2024-01-06T09:38:44;11.23;;;4.97;;
8665;SDS011;4370;48.916;8.380;2024-01-06T09:41:10;6.53;;;4.67;;
8665;SDS011;4370;48.916;8.380;2024-01-06T09:46:22;11.93;;;6.37;;
8665;SDS011;4370;48.916;8.380;2024-01-06T09:48:52;12.60;;;6.57;;
8665;SDS011;4370;48.916;8.380;2024-01-06T09:51:23;7.13;;;5.23;;
8665;SDS011;4370;48.916;8.380;2024-01-06T09:54:09;7.63;;;5.33;;
8665;SDS011;4370;48.916;8.380;2024-01-06T10:02:59;10.47;;;6.40;;
8665;SDS011;4370;48.916;8.380;2024-01-06T10:05:27;10.27;;;6.30;;
8665;SDS011;4370;48.916;8.380;2024-01-06T10:08:05;11.60;;;6.43;;
8665;SDS011;4370;48.916;8.380;2024-01-06T10:10:42;8.90;;;5.57;;
8665;SDS011;4370;48.916;8.380;2024-01-06T10:13:17;13.87;;;7.27;;
8665;SDS011;4370;48.916;8.380;2024-01-06T10:18:48;7.47;;;5.33;;
8665;SDS011;4370;48.916;8.380;2024-01-06T10:21:34;8.10;;;5.83;;
8665;SDS011;4370;48.916;8.380;2024-01-06T10:24:00;10.37;;;6.10;;
8665;SDS011;4370;48.916;8.380;2024-01-06T10:26:29;9.53;;;6.60;;
8665;SDS011;4370;48.916;8.380;2024-01-06T10:28:58;8.90;;;6.27;;
8665;SDS011;4370;48.916;8.380;2024-01-06T10:31:27;8.93;;;6.57;;
8665;SDS011;4370;48.916;8.380;2024-01-06T10:34:25;9.90;;;6.33;;
8665;SDS011;4370;48.916;8.380;2024-01-06T10:37:28;7.70;;;5.77;;
8665;SDS011;4370;48.916;8.380;2024-01-06T10:44:09;7.20;;;5.40;;
8665;SDS011;4370;48.916;8.380;2024-01-06T10:46:36;10.23;;;6.00;;
8665;SDS011;4370;48.916;8.380;2024-01-06T10:49:07;9.50;;;5.90;;
8665;SDS011;4370;48.916;8.380;2024-01-06T10:51:39;9.17;;;5.50;;
8665;SDS011;4370;48.916;8.380;2024-01-06T10:54:13;9.73;;;5.37;;
8665;SDS011;4370;48.916;8.380;2024-01-06T10:56:52;8.70;;;5.63;;
8665;SDS011;4370;48.916;8.380;2024-01-06T10:59:39;10.07;;;5.27;;
8665;SDS011;4370;48.916;8.380;2024-01-06T11:02:06;5.20;;;4.67;;
8665;SDS011;4370;48.916;8.380;2024-01-06T11:04:53;7.87;;;5.53;;
8665;SDS011;4370;48.916;8.380;2024-01-06T11:07:23;9.40;;;6.57;;
8665;SDS011;4370;48.916;8.380;2024-01-06T11:12:44;8.80;;;5.33;;
8665;SDS011;4370;48.916;8.380;2024-01-06T11:18:34;5.67;;;5.07;;
8665;SDS011;4370;48.916;8.380;2024-01-06T11:21:26;7.40;;;6.03;;
8665;SDS011;4370;48.916;8.380;2024-01-06T11:31:07;7.50;;;5.90;;
8665;SDS011;4370;48.916;8.380;2024-01-06T11:37:02;98.93;;;35.07;;
8665;SDS011;4370;48.916;8.380;2024-01-06T11:39:35;42.43;;;17.13;;
8665;SDS011;4370;48.916;8.380;2024-01-06T11:42:07;27.47;;;12.17;;
8665;SDS011;4370;48.916;8.380;2024-01-06T11:52:24;10.97;;;5.63;;
8665;SDS011;4370;48.916;8.380;2024-01-06T11:54:57;7.87;;;5.70;;
8665;SDS011;4370;48.916;8.380;2024-01-06T11:57:59;8.33;;;5.90;;
8665;SDS011;4370;48.916;8.380;2024-01-06T12:00:39;10.17;;;5.67;;
8665;SDS011;4370;48.916;8.380;2024-01-06T12:03:10;7.87;;;5.03;;
8665;SDS011;4370;48.916;8.380;2024-01-06T12:05:36;8.10;;;5.40;;
8665;SDS011;4370;48.916;8.380;2024-01-06T12:08:03;9.27;;;6.00;;
8665;SDS011;4370;48.916;8.380;2024-01-06T12:10:32;9.43;;;5.47;;
8665;SDS011;4370;48.916;8.380;2024-01-06T12:13:18;7.23;;;5.57;;
8665;SDS011;4370;48.916;8.380;2024-01-06T12:15:45;9.10;;;6.43;;
8665;SDS011;4370;48.916;8.380;2024-01-06T12:18:11;14.20;;;7.47;;
8665;SDS011;4370;48.916;8.380;2024-01-06T12:20:47;13.53;;;7.47;;
8665;SDS011;4370;48.916;8.380;2024-01-06T12:23:26;9.47;;;7.00;;
8665;SDS011;4370;48.916;8.380;2024-01-06T12:25:55;13.10;;;8.67;;
8665;SDS011;4370;48.916;8.380;2024-01-06T12:28:24;18.33;;;10.80;;
8665;SDS011;4370;48.916;8.380;2024-01-06T12:39:46;16.63;;;11.30;;
8665;SDS011;4370;48.916;8.380;2024-01-06T12:42:16;16.23;;;10.50;;
8665;SDS011;4370;48.916;8.380;2024-01-06T12:44:53;13.77;;;10.57;;
8665;SDS011;4370;48.916;8.380;2024-01-06T12:48:04;22.40;;;11.80;;
8665;SDS011;4370;48.916;8.380;2024-01-06T12:50:11;14.23;;;9.37;;
8665;SDS011;4370;48.916;8.380;2024-01-06T12:55:49;29.47;;;15.03;;
8665;SDS011;4370;48.916;8.380;2024-01-06T13:04:57;19.43;;;12.23;;
8665;SDS011;4370;48.916;8.380;2024-01-06T13:07:24;16.47;;;10.93;;
8665;SDS011;4370;48.916;8.380;2024-01-06T13:10:03;12.37;;;9.10;;
8665;SDS011;4370;48.916;8.380;2024-01-06T13:12:32;14.13;;;9.37;;
8665;SDS011;4370;48.916;8.380;2024-01-06T13:18:14;14.33;;;9.00;;
8665;SDS011;4370;48.916;8.380;2024-01-06T13:20:42;13.80;;;9.03;;
8665;SDS011;4370;48.916;8.380;2024-01-06T13:23:11;19.40;;;12.07;;
8665;SDS011;4370;48.916;8.380;2024-01-06T13:25:38;12.10;;;8.30;;
8665;SDS011;4370;48.916;8.380;2024-01-06T13:28:05;14.77;;;9.07;;
8665;SDS011;4370;48.916;8.380;2024-01-06T13:30:34;176.43;;;60.37;;
8665;SDS011;4370;48.916;8.380;2024-01-06T13:33:08;263.33;;;93.63;;
8665;SDS011;4370;48.916;8.380;2024-01-06T13:36:12;198.40;;;77.47;;
8665;SDS011;4370;48.916;8.380;2024-01-06T13:38:48;69.87;;;31.60;;
8665;SDS011;4370;48.916;8.380;2024-01-06T13:41:14;91.23;;;42.27;;
8665;SDS011;4370;48.916;8.380;2024-01-06T13:43:40;44.37;;;22.47;;
8665;SDS011;4370;48.916;8.380;2024-01-06T13:46:06;39.57;;;21.03;;
8665;SDS011;4370;48.916;8.380;2024-01-06T13:48:52;30.30;;;16.57;;
8665;SDS011;4370;48.916;8.380;2024-01-06T13:51:21;20.00;;;12.93;;
8665;SDS011;4370;48.916;8.380;2024-01-06T13:53:53;20.57;;;12.97;;
8665;SDS011;4370;48.916;8.380;2024-01-06T13:56:47;21.27;;;13.23;;
8665;SDS011;4370;48.916;8.380;2024-01-06T13:59:14;16.13;;;11.07;;
8665;SDS011;4370;48.916;8.380;2024-01-06T14:01:53;16.13;;;10.90;;
8665;SDS011;4370;48.916;8.380;2024-01-06T14:04:24;15.57;;;10.57;;
8665;SDS011;4370;48.916;8.380;2024-01-06T14:07:02;21.90;;;15.33;;
8665;SDS011;4370;48.916;8.380;2024-01-06T14:09:40;22.27;;;15.00;;
8665;SDS011;4370;48.916;8.380;2024-01-06T14:12:06;21.73;;;13.87;;
8665;SDS011;4370;48.916;8.380;2024-01-06T14:14:35;37.63;;;22.97;;
8665;SDS011;4370;48.916;8.380;2024-01-06T14:17:01;25.43;;;16.60;;
8665;SDS011;4370;48.916;8.380;2024-01-06T14:19:30;25.07;;;15.13;;
8665;SDS011;4370;48.916;8.380;2024-01-06T14:25:50;15.83;;;10.40;;
8665;SDS011;4370;48.916;8.380;2024-01-06T14:28:16;15.73;;;10.43;;
8665;SDS011;4370;48.916;8.380;2024-01-06T14:30:43;10.63;;;8.30;;
8665;SDS011;4370;48.916;8.380;2024-01-06T14:33:09;13.33;;;9.47;;
8665;SDS011;4370;48.916;8.380;2024-01-06T14:35:35;14.30;;;9.60;;
8665;SDS011;4370;48.916;8.380;2024-01-06T14:38:01;15.07;;;9.37;;
8665;SDS011;4370;48.916;8.380;2024-01-06T14:40:27;14.80;;;10.50;;
8665;SDS011;4370;48.916;8.380;2024-01-06T14:43:04;14.97;;;10.60;;
8665;SDS011;4370;48.916;8.380;2024-01-06T14:45:42;20.23;;;13.67;;
8665;SDS011;4370;48.916;8.380;2024-01-06T14:48:31;23.57;;;16.20;;
8665;SDS011;4370;48.916;8.380;2024-01-06T14:50:59;28.23;;;16.17;;
8665;SDS011;4370;48.916;8.380;2024-01-06T14:56:51;21.57;;;13.00;;
8665;SDS011;4370;48.916;8.380;2024-01-06T14:59:19;18.17;;;12.83;;
8665;SDS011;4370;48.916;8.380;2024-01-06T15:01:44;17.40;;;11.30;;
8665;SDS011;4370;48.916;8.380;2024-01-06T15:04:12;19.77;;;13.50;;
8665;SDS011;4370;48.916;8.380;2024-01-06T15:10:01;15.20;;;10.93;;
8665;SDS011;4370;48.916;8.380;2024-01-06T15:12:40;15.17;;;10.57;;
8665;SDS011;4370;48.916;8.380;2024-01-06T15:15:15;16.47;;;10.57;;
8665;SDS011;4370;48.916;8.380;2024-01-06T15:17:57;17.90;;;12.37;;
8665;SDS011;4370;48.916;8.380;2024-01-06T15:20:33;14.67;;;9.60;;
8665;SDS011;4370;48.916;8.380;2024-01-06T15:23:04;21.93;;;14.77;;
8665;SDS011;4370;48.916;8.380;2024-01-06T15:25:48;24.60;;;17.07;;
8665;SDS011;4370;48.916;8.380;2024-01-06T15:28:14;30.27;;;19.83;;
8665;SDS011;4370;48.916;8.380;2024-01-06T15:30:41;56.87;;;39.23;;
8665;SDS011;4370;48.916;8.380;2024-01-06T15:33:28;26.67;;;19.23;;
8665;SDS011;4370;48.916;8.380;2024-01-06T15:39:25;20.73;;;14.77;;
8665;SDS011;4370;48.916;8.380;2024-01-06T15:54:48;16.70;;;11.97;;
8665;SDS011;4370;48.916;8.380;2024-01-06T15:57:17;17.77;;;11.87;;
8665;SDS011;4370;48.916;8.380;2024-01-06T15:59:43;18.20;;;10.83;;
8665;SDS011;4370;48.916;8.380;2024-01-06T16:02:20;14.57;;;10.23;;
8665;SDS011;4370;48.916;8.380;2024-01-06T16:04:46;17.20;;;11.97;;
8665;SDS011;4370;48.916;8.380;2024-01-06T16:07:47;12.10;;;9.80;;
8665;SDS011;4370;48.916;8.380;2024-01-06T16:10:13;23.57;;;13.13;;
8665;SDS011;4370;48.916;8.380;2024-01-06T16:16:05;18.30;;;12.03;;
8665;SDS011;4370;48.916;8.380;2024-01-06T16:18:34;14.93;;;11.43;;
8665;SDS011;4370;48.916;8.380;2024-01-06T16:21:00;18.00;;;12.37;;
8665;SDS011;4370;48.916;8.380;2024-01-06T16:23:27;17.60;;;11.57;;
8665;SDS011;4370;48.916;8.380;2024-01-06T16:26:00;18.73;;;12.90;;
8665;SDS011;4370;48.916;8.380;2024-01-06T16:28:39;18.20;;;12.03;;
8665;SDS011;4370;48.916;8.380;2024-01-06T16:31:07;13.53;;;9.70;;
8665;SDS011;4370;48.916;8.380;2024-01-06T16:33:53;15.57;;;10.33;;
8665;SDS011;4370;48.916;8.380;2024-01-06T16:36:24;15.47;;;11.53;;
8665;SDS011;4370;48.916;8.380;2024-01-06T16:38:55;15.37;;;10.80;;
8665;SDS011;4370;48.916;8.380;2024-01-06T16:41:30;12.33;;;8.77;;
8665;SDS011;4370;48.916;8.380;2024-01-06T16:43:59;11.80;;;8.90;;
8665;SDS011;4370;48.916;8.380;2024-01-06T16:46:25;12.33;;;8.73;;
8665;SDS011;4370;48.916;8.380;2024-01-06T16:49:01;12.47;;;8.37;;
8665;SDS011;4370;48.916;8.380;2024-01-06T16:54:08;11.70;;;7.90;;
8665;SDS011;4370;48.916;8.380;2024-01-06T17:02:20;12.93;;;9.23;;
8665;SDS011;4370;48.916;8.380;2024-01-06T17:04:48;13.80;;;8.63;;
8665;SDS011;4370;48.916;8.380;2024-01-06T17:07:33;11.50;;;8.47;;
8665;SDS011;4370;48.916;8.380;2024-01-06T17:10:00;12.33;;;9.03;;
8665;SDS011;4370;48.916;8.380;2024-01-06T17:12:38;13.37;;;9.67;;
8665;SDS011;4370;48.916;8.380;2024-01-06T17:15:04;13.23;;;9.80;;
8665;SDS011;4370;48.916;8.380;2024-01-06T17:17:38;76.90;;;30.67;;
8665;SDS011;4370;48.916;8.380;2024-01-06T17:20:10;30.33;;;16.40;;
8665;SDS011;4370;48.916;8.380;2024-01-06T17:23:16;24.27;;;14.07;;
8665;SDS011;4370;48.916;8.380;2024-01-06T17:25:45;21.23;;;12.43;;
8665;SDS011;4370;48.916;8.380;2024-01-06T17:35:33;15.57;;;10.70;;
8665;SDS011;4370;48.916;8.380;2024-01-06T17:38:37;14.77;;;10.57;;
8665;SDS011;4370;48.916;8.380;2024-01-06T17:41:03;14.53;;;10.50;;
8665;SDS011;4370;48.916;8.380;2024-01-06T17:43:32;14.60;;;9.90;;
8665;SDS011;4370;48.916;8.380;2024-01-06T17:45:59;13.63;;;9.20;;
8665;SDS011;4370;48.916;8.380;2024-01-06T17:48:38;18.43;;;12.63;;
8665;SDS011;4370;48.916;8.380;2024-01-06T17:51:04;18.23;;;12.83;;
8665;SDS011;4370;48.916;8.380;2024-01-06T17:53:34;18.77;;;11.97;;
8665;SDS011;4370;48.916;8.380;2024-01-06T17:56:38;18.17;;;11.47;;
8665;SDS011;4370;48.916;8.380;2024-01-06T17:59:04;16.10;;;10.80;;
8665;SDS011;4370;48.916;8.380;2024-01-06T18:01:30;16.43;;;10.80;;
8665;SDS011;4370;48.916;8.380;2024-01-06T18:04:12;14.97;;;10.60;;
8665;SDS011;4370;48.916;8.380;2024-01-06T18:06:38;17.13;;;10.70;;
8665;SDS011;4370;48.916;8.380;2024-01-06T18:09:15;14.70;;;10.37;;
8665;SDS011;4370;48.916;8.380;2024-01-06T18:11:44;13.43;;;8.93;;
8665;SDS011;4370;48.916;8.380;2024-01-06T18:15:26;21.23;;;13.83;;
8665;SDS011;4370;48.916;8.380;2024-01-06T18:17:36;13.87;;;10.57;;
8665;SDS011;4370;48.916;8.380;2024-01-06T18:20:03;19.17;;;13.37;;
8665;SDS011;4370;48.916;8.380;2024-01-06T18:22:36;15.53;;;10.77;;
8665;SDS011;4370;48.916;8.380;2024-01-06T18:25:02;14.33;;;9.50;;
8665;SDS011;4370;48.916;8.380;2024-01-06T18:27:28;13.00;;;10.17;;
8665;SDS011;4370;48.916;8.380;2024-01-06T18:29:56;12.13;;;9.60;;
8665;SDS011;4370;48.916;8.380;2024-01-06T18:32:32;12.40;;;9.17;;
8665;SDS011;4370;48.916;8.380;2024-01-06T18:34:58;14.03;;;9.10;;
8665;SDS011;4370;48.916;8.380;2024-01-06T18:37:25;11.93;;;8.50;;
8665;SDS011;4370;48.916;8.380;2024-01-06T18:39:51;11.03;;;8.73;;
8665;SDS011;4370;48.916;8.380;2024-01-06T18:45:41;13.23;;;8.27;;
8665;SDS011;4370;48.916;8.380;2024-01-06T18:48:07;11.63;;;9.17;;
8665;SDS011;4370;48.916;8.380;2024-01-06T18:50:34;10.73;;;8.43;;
8665;SDS011;4370;48.916;8.380;2024-01-06T18:53:00;10.40;;;7.97;;
8665;SDS011;4370;48.916;8.380;2024-01-06T18:55:42;10.63;;;8.50;;
8665;SDS011;4370;48.916;8.380;2024-01-06T18:58:08;10.73;;;8.13;;
8665;SDS011;4370;48.916;8.380;2024-01-06T19:00:47;10.13;;;7.63;;
8665;SDS011;4370;48.916;8.380;2024-01-06T19:04:00;12.67;;;9.17;;
8665;SDS011;4370;48.916;8.380;2024-01-06T19:06:26;14.07;;;9.13;;
8665;SDS011;4370;48.916;8.380;2024-01-06T19:14:17;12.47;;;9.33;;
8665;SDS011;4370;48.916;8.380;2024-01-06T19:16:46;12.53;;;8.67;;
8665;SDS011;4370;48.916;8.380;2024-01-06T19:19:12;14.77;;;10.03;;
8665;SDS011;4370;48.916;8.380;2024-01-06T19:21:38;13.93;;;9.00;;
8665;SDS011;4370;48.916;8.380;2024-01-06T19:26:49;9.33;;;7.50;;
8665;SDS011;4370;48.916;8.380;2024-01-06T19:29:15;33.43;;;17.60;;
8665;SDS011;4370;48.916;8.380;2024-01-06T19:31:43;16.07;;;10.07;;
8665;SDS011;4370;48.916;8.380;2024-01-06T19:34:32;22.63;;;12.93;;
8665;SDS011;4370;48.916;8.380;2024-01-06T19:37:22;23.27;;;13.30;;
8665;SDS011;4370;48.916;8.380;2024-01-06T19:40:14;19.50;;;12.40;;
8665;SDS011;4370;48.916;8.380;2024-01-06T19:43:01;19.03;;;11.93;;
8665;SDS011;4370;48.916;8.380;2024-01-06T19:48:34;17.37;;;10.33;;
8665;SDS011;4370;48.916;8.380;2024-01-06T19:57:18;9.67;;;6.83;;
8665;SDS011;4370;48.916;8.380;2024-01-06T20:05:36;12.50;;;9.07;;
8665;SDS011;4370;48.916;8.380;2024-01-06T20:11:55;17.57;;;11.70;;
8665;SDS011;4370;48.916;8.380;2024-01-06T20:21:13;23.53;;;14.77;;
8665;SDS011;4370;48.916;8.380;2024-01-06T20:23:40;22.27;;;15.20;;
8665;SDS011;4370;48.916;8.380;2024-01-06T20:26:15;23.80;;;15.73;;
8665;SDS011;4370;48.916;8.380;2024-01-06T20:28:41;24.47;;;16.10;;
8665;SDS011;4370;48.916;8.380;2024-01-06T20:31:07;26.33;;;17.17;;
8665;SDS011;4370;48.916;8.380;2024-01-06T20:33:35;24.50;;;16.33;;
8665;SDS011;4370;48.916;8.380;2024-01-06T20:36:02;24.37;;;16.70;;
8665;SDS011;4370;48.916;8.380;2024-01-06T20:38:35;24.13;;;15.27;;
8665;SDS011;4370;48.916;8.380;2024-01-06T20:41:01;23.03;;;15.00;;
8665;SDS011;4370;48.916;8.380;2024-01-06T20:43:29;23.77;;;15.73;;
8665;SDS011;4370;48.916;8.380;2024-01-06T20:45:54;21.80;;;14.20;;
8665;SDS011;4370;48.916;8.380;2024-01-06T20:48:20;22.27;;;14.37;;
8665;SDS011;4370;48.916;8.380;2024-01-06T20:50:48;19.63;;;13.87;;
8665;SDS011;4370;48.916;8.380;2024-01-06T20:53:14;22.13;;;14.90;;
8665;SDS011;4370;48.916;8.380;2024-01-06T20:55:41;22.57;;;15.30;;